Time;durP1;ratioP1;P1;durP2;ratioP2;P2;SDS_P1;SDS_P2;PMS_P1;PMS_P2;Temp;Humidity;BMP_temperature;BMP_pressure;BME280_temperature;BME280_humidity;BME280_pressure;Samples;Min_cycle;Max_cycle;Signal;HPM_P1;HPM_P2
2021/08/12 00:02:24;;;;;;;15.02;10.60;;;12.40;99.90;;;;;;4952909;28;20039;-77
2021/08/12 00:04:51;;;;;;;13.10;9.13;;;12.40;99.90;;;;;;4968745;28;20508;-77
2021/08/12 00:07:16;;;;;;;13.82;9.05;;;12.40;99.90;;;;;;4969394;28;20034;-77
2021/08/12 00:09:42;;;;;;;8.57;6.60;;;12.30;99.90;;;;;;4972102;28;20047;-77
2021/08/12 00:12:08;;;;;;;7.32;5.70;;;12.20;99.90;;;;;;4971969;28;20102;-78
2021/08/12 00:14:33;;;;;;;6.97;5.13;;;12.10;99.90;;;;;;4970686;28;20057;-78
2021/08/12 00:16:59;;;;;;;6.55;5.82;;;12.10;99.90;;;;;;4971334;28;20055;-77
2021/08/12 00:19:25;;;;;;;6.85;5.25;;;12.00;99.90;;;;;;4970617;28;20054;-78
2021/08/12 00:21:50;;;;;;;7.35;6.47;;;12.00;99.90;;;;;;4971883;28;20107;-77
2021/08/12 00:24:21;;;;;;;7.75;6.57;;;12.00;99.90;;;;;;5040739;28;20088;-78
2021/08/12 00:26:48;;;;;;;12.65;7.78;;;11.90;99.90;;;;;;4951344;28;20042;-78
2021/08/12 00:29:13;;;;;;;11.30;7.45;;;11.90;99.90;;;;;;4951183;28;20465;-78
2021/08/12 00:31:39;;;;;;;10.10;7.55;;;11.90;99.90;;;;;;4952358;28;20061;-78
2021/08/12 00:34:05;;;;;;;8.25;6.90;;;11.90;99.90;;;;;;4952300;28;20066;-78
2021/08/12 00:36:30;;;;;;;11.55;7.82;;;11.90;99.90;;;;;;4967229;28;20026;-78
2021/08/12 00:38:56;;;;;;;10.60;8.55;;;11.80;99.90;;;;;;4965838;28;20046;-78
2021/08/12 00:41:22;;;;;;;13.15;8.35;;;11.90;99.90;;;;;;4969737;28;20507;-77
2021/08/12 00:43:48;;;;;;;10.80;8.30;;;11.80;99.90;;;;;;4971531;28;20026;-78
2021/08/12 00:46:13;;;;;;;12.43;8.60;;;11.80;99.90;;;;;;4971544;28;20027;-77
2021/08/12 00:48:39;;;;;;;11.40;8.88;;;11.70;99.90;;;;;;4970885;28;20041;-77
2021/08/12 00:51:05;;;;;;;10.82;7.35;;;11.60;99.90;;;;;;4971573;28;20038;-77
2021/08/12 00:53:32;;;;;;;8.30;6.63;;;11.60;99.90;;;;;;4970181;28;20030;-78
2021/08/12 00:55:57;;;;;;;8.77;6.00;;;11.60;99.90;;;;;;4971505;28;20023;-78
2021/08/12 00:58:23;;;;;;;8.45;6.20;;;11.60;99.90;;;;;;4971260;28;20027;-77
2021/08/12 01:00:49;;;;;;;17.13;10.27;;;11.60;99.90;;;;;;4970406;28;20029;-77
2021/08/12 01:03:18;;;;;;;14.82;10.48;;;11.60;99.90;;;;;;4965160;28;20046;-78
2021/08/12 01:05:43;;;;;;;16.50;10.27;;;11.60;99.90;;;;;;4952101;28;20044;-78
2021/08/12 01:08:16;;;;;;;14.82;9.75;;;11.60;99.90;;;;;;4974080;28;20473;-78
2021/08/12 01:11:02;;;;;;;14.27;9.45;;;11.60;99.90;;;;;;4970169;28;20092;-78
2021/08/12 01:13:28;;;;;;;11.82;8.35;;;11.60;99.90;;;;;;4986204;28;20023;-78
2021/08/12 01:15:58;;;;;;;10.82;8.65;;;11.50;99.90;;;;;;4971361;28;20015;-78
2021/08/12 01:18:38;;;;;;;12.30;8.55;;;11.50;99.90;;;;;;4970732;28;20081;-77
2021/08/12 01:21:32;;;;;;;13.10;7.47;;;11.40;99.90;;;;;;4985584;28;20493;-77
2021/08/12 01:24:03;;;;;;;5.53;5.00;;;11.30;99.90;;;;;;4969685;28;20026;-77
2021/08/12 01:26:32;;;;;;;6.82;6.13;;;11.30;99.90;;;;;;4970946;28;20029;-78
2021/08/12 01:29:02;;;;;;;6.00;5.40;;;11.20;99.90;;;;;;4970941;28;20084;-77
2021/08/12 01:31:39;;;;;;;9.02;6.63;;;11.20;99.90;;;;;;4970960;28;20027;-78
2021/08/12 01:34:27;;;;;;;8.63;6.50;;;11.20;99.90;;;;;;4971001;28;20031;-78
2021/08/12 01:36:54;;;;;;;10.30;7.35;;;11.10;99.90;;;;;;4969047;28;20080;-78
2021/08/12 01:39:22;;;;;;;5.70;5.07;;;11.20;99.90;;;;;;4970005;28;20034;-77
2021/08/12 01:41:48;;;;;;;6.28;5.10;;;11.10;99.90;;;;;;4970890;28;20078;-77
2021/08/12 01:44:16;;;;;;;5.88;4.75;;;11.10;99.90;;;;;;4970359;28;20037;-78
2021/08/12 01:46:47;;;;;;;5.13;4.63;;;11.00;99.90;;;;;;4966350;28;20384;-78
2021/08/12 01:49:14;;;;;;;6.70;5.30;;;10.90;99.90;;;;;;4951510;28;20031;-78
2021/08/12 01:51:41;;;;;;;7.85;5.15;;;10.90;99.90;;;;;;4953564;28;20027;-78
2021/08/12 01:54:08;;;;;;;8.30;6.00;;;10.90;99.90;;;;;;4954005;28;20034;-78
2021/08/12 01:56:37;;;;;;;9.60;7.03;;;10.80;99.90;;;;;;4969459;28;20027;-78
2021/08/12 01:59:03;;;;;;;21.33;12.23;;;10.80;99.90;;;;;;4954745;28;20042;-78
2021/08/12 02:01:30;;;;;;;23.25;14.40;;;10.80;99.90;;;;;;4955743;28;20038;-78
2021/08/12 02:03:56;;;;;;;33.33;19.10;;;10.80;99.90;;;;;;4964793;28;20035;-78
2021/08/12 02:06:24;;;;;;;17.05;11.05;;;10.90;99.90;;;;;;4980837;28;20031;-78
2021/08/12 02:08:50;;;;;;;15.70;10.20;;;10.80;99.90;;;;;;4972598;28;20031;-78
2021/08/12 02:11:16;;;;;;;14.43;9.52;;;10.80;99.90;;;;;;4972538;28;20027;-77
2021/08/12 02:13:42;;;;;;;14.23;10.55;;;10.90;99.90;;;;;;4973801;28;20495;-78
2021/08/12 02:16:09;;;;;;;18.67;10.73;;;10.80;99.90;;;;;;4972549;28;20061;-77
2021/08/12 02:18:42;;;;;;;14.32;9.70;;;10.80;99.90;;;;;;4973780;28;20537;-78
2021/08/12 02:21:14;;;;;;;16.02;9.70;;;10.90;99.90;;;;;;4967916;28;20031;-78
2021/08/12 02:24:07;;;;;;;12.40;8.90;;;10.80;99.90;;;;;;4954266;28;20400;-78
2021/08/12 02:26:38;;;;;;;8.55;6.47;;;10.70;99.90;;;;;;4965302;28;20035;-78
2021/08/12 02:29:05;;;;;;;9.77;6.65;;;10.70;99.90;;;;;;4973566;28;20031;-78
2021/08/12 02:31:31;;;;;;;9.45;6.63;;;10.70;99.90;;;;;;4973424;28;20427;-78
2021/08/12 02:33:57;;;;;;;7.18;5.80;;;10.60;99.90;;;;;;4972345;28;20019;-78
2021/08/12 02:36:24;;;;;;;9.95;6.93;;;10.60;99.90;;;;;;4973112;28;20027;-78
2021/08/12 02:38:50;;;;;;;9.85;7.10;;;10.60;99.90;;;;;;4972075;28;20035;-78
2021/08/12 02:41:20;;;;;;;10.90;7.88;;;10.50;99.90;;;;;;4988344;28;20027;-78
2021/08/12 02:43:46;;;;;;;8.68;7.78;;;10.50;99.90;;;;;;4973400;28;20031;-78
2021/08/12 02:46:14;;;;;;;12.68;8.63;;;10.50;99.90;;;;;;4972084;28;20037;-78
2021/08/12 02:48:40;;;;;;;10.13;8.02;;;10.50;99.90;;;;;;4973241;28;20369;-78
2021/08/12 02:51:07;;;;;;;14.40;8.50;;;10.50;99.90;;;;;;4957032;28;20516;-78
2021/08/12 02:53:33;;;;;;;10.63;8.15;;;10.50;99.90;;;;;;4952642;28;20043;-78
2021/08/12 02:56:02;;;;;;;12.10;8.25;;;10.50;99.90;;;;;;4968815;28;20027;-78
2021/08/12 02:58:32;;;;;;;12.02;9.07;;;10.50;99.90;;;;;;4968575;28;20525;-78
2021/08/12 03:01:00;;;;;;;17.50;10.40;;;10.50;99.90;;;;;;4968280;28;20504;-78
2021/08/12 03:03:27;;;;;;;10.43;7.57;;;10.50;99.90;;;;;;4967776;28;20024;-78
2021/08/12 03:05:53;;;;;;;11.20;7.90;;;10.50;99.90;;;;;;4953804;28;20031;-78
2021/08/12 03:08:20;;;;;;;15.98;8.35;;;10.40;99.90;;;;;;4953499;28;20030;-78
2021/08/12 03:10:46;;;;;;;14.98;8.50;;;10.40;99.90;;;;;;4953831;28;20030;-78
2021/08/12 03:13:13;;;;;;;9.02;7.95;;;10.40;99.90;;;;;;4953620;28;20028;-78
2021/08/12 03:15:39;;;;;;;9.40;7.13;;;10.30;99.90;;;;;;4953615;28;20034;-78
2021/08/12 03:18:06;;;;;;;10.73;7.90;;;10.40;99.90;;;;;;4952281;28;20502;-78
2021/08/12 03:20:32;;;;;;;9.52;7.85;;;10.40;99.90;;;;;;4969408;28;20440;-78
2021/08/12 03:22:58;;;;;;;13.25;8.57;;;10.40;99.90;;;;;;4969437;28;20032;-78
2021/08/12 03:25:24;;;;;;;14.18;8.63;;;10.30;99.90;;;;;;4968265;28;20511;-78
2021/08/12 03:27:51;;;;;;;21.40;11.45;;;10.30;99.90;;;;;;4952214;28;20370;-78
2021/08/12 03:30:18;;;;;;;15.32;9.55;;;10.30;99.90;;;;;;4951954;28;20038;-78
2021/08/12 03:32:44;;;;;;;19.25;10.90;;;10.30;99.90;;;;;;4968187;28;20110;-78
2021/08/12 03:35:10;;;;;;;21.38;12.27;;;10.30;99.90;;;;;;4967999;28;20174;-78
2021/08/12 03:37:36;;;;;;;13.75;9.32;;;10.30;99.90;;;;;;4952044;28;20112;-78
2021/08/12 03:40:01;;;;;;;22.42;10.55;;;10.40;99.90;;;;;;4953133;28;20093;-78
2021/08/12 03:42:27;;;;;;;22.58;12.25;;;10.40;99.90;;;;;;4967967;28;20023;-78
2021/08/12 03:44:53;;;;;;;36.70;17.60;;;10.40;99.90;;;;;;4952272;28;20030;-78
2021/08/12 03:47:19;;;;;;;29.67;14.80;;;10.40;99.90;;;;;;4967701;28;20061;-78
2021/08/12 03:49:45;;;;;;;26.15;13.15;;;10.40;99.90;;;;;;4954155;28;20035;-78
2021/08/12 03:52:11;;;;;;;19.33;10.60;;;10.40;99.90;;;;;;4952915;28;20077;-78
2021/08/12 03:54:37;;;;;;;16.63;9.52;;;10.40;99.90;;;;;;4953025;28;20028;-78
2021/08/12 03:57:07;;;;;;;9.07;6.70;;;10.30;99.90;;;;;;4953014;28;20102;-78
2021/08/12 03:59:33;;;;;;;12.90;7.35;;;10.40;99.90;;;;;;4951659;28;20481;-78
2021/08/12 04:01:59;;;;;;;8.57;6.28;;;10.40;99.90;;;;;;4967020;28;20397;-78
2021/08/12 04:04:26;;;;;;;7.90;6.82;;;10.40;99.90;;;;;;4952817;28;20051;-78
2021/08/12 04:06:52;;;;;;;8.88;6.50;;;10.40;99.90;;;;;;4952893;28;20030;-78
2021/08/12 04:09:17;;;;;;;8.25;6.05;;;10.50;99.90;;;;;;4953650;28;20039;-78
2021/08/12 04:11:43;;;;;;;11.95;7.22;;;10.60;99.90;;;;;;4953030;28;20393;-78
2021/08/12 04:14:09;;;;;;;9.23;6.35;;;10.70;99.90;;;;;;4966378;28;20447;-78
2021/08/12 04:16:35;;;;;;;7.13;6.32;;;10.80;99.90;;;;;;4967511;28;20031;-79
2021/08/12 04:19:01;;;;;;;7.97;5.78;;;10.90;99.90;;;;;;4967467;28;20027;-78
2021/08/12 04:21:26;;;;;;;5.90;5.30;;;11.10;99.90;;;;;;4967800;28;20034;-78
2021/08/12 04:23:52;;;;;;;8.45;5.68;;;11.20;99.90;;;;;;4971924;28;20088;-78
2021/08/12 04:26:18;;;;;;;9.27;5.68;;;11.30;99.90;;;;;;4971517;28;20034;-78
2021/08/12 04:28:43;;;;;;;17.42;6.38;;;11.40;99.90;;;;;;4970420;28;20088;-78
2021/08/12 04:31:09;;;;;;;7.25;6.03;;;11.50;99.90;;;;;;4971592;28;20059;-78
2021/08/12 04:33:36;;;;;;;10.13;6.35;;;11.60;99.90;;;;;;4970147;28;20065;-78
2021/08/12 04:36:02;;;;;;;13.02;6.13;;;11.70;99.90;;;;;;4971776;28;20100;-78
2021/08/12 04:38:28;;;;;;;11.35;7.00;;;11.90;99.90;;;;;;4970354;28;20476;-78
2021/08/12 04:41:01;;;;;;;15.73;7.82;;;11.90;99.90;;;;;;4966303;28;20475;-80
2021/08/12 04:43:26;;;;;;;12.43;7.15;;;12.10;99.90;;;;;;4967164;28;20027;-79
2021/08/12 04:45:52;;;;;;;9.48;6.97;;;12.20;99.90;;;;;;4952047;28;20042;-79
2021/08/12 04:48:18;;;;;;;10.73;6.82;;;12.30;99.90;;;;;;4966883;28;20027;-79
2021/08/12 04:50:43;;;;;;;13.20;8.20;;;12.20;99.90;;;;;;4962775;28;20031;-79
2021/08/12 04:53:09;;;;;;;14.68;9.65;;;12.30;99.90;;;;;;4986267;28;20037;-79
2021/08/12 04:55:35;;;;;;;17.63;9.73;;;12.30;99.90;;;;;;4986416;28;20019;-79
2021/08/12 04:58:01;;;;;;;17.77;10.02;;;12.30;99.90;;;;;;4986338;28;20023;-79
2021/08/12 05:00:26;;;;;;;28.50;11.00;;;12.40;99.90;;;;;;4960904;28;20023;-79
2021/08/12 05:02:52;;;;;;;17.92;9.57;;;12.40;99.90;;;;;;4966849;28;20035;-79
2021/08/12 05:05:18;;;;;;;19.45;11.88;;;12.50;99.90;;;;;;4951965;28;20111;-79
2021/08/12 05:07:44;;;;;;;20.00;11.60;;;12.60;99.90;;;;;;4962526;28;20031;-79
2021/08/12 05:10:10;;;;;;;18.55;10.48;;;12.70;99.90;;;;;;4969887;28;20039;-79
2021/08/12 05:12:35;;;;;;;23.90;12.93;;;12.80;99.90;;;;;;4961709;28;20488;-79
2021/08/12 05:15:02;;;;;;;22.25;11.23;;;12.90;99.90;;;;;;4970091;28;20019;-79
2021/08/12 05:17:27;;;;;;;21.05;13.15;;;13.10;99.90;;;;;;4970141;28;20015;-79
2021/08/12 05:19:53;;;;;;;19.90;11.10;;;13.20;99.90;;;;;;4969904;28;20031;-79
2021/08/12 05:22:23;;;;;;;20.58;12.40;;;13.30;99.90;;;;;;4969764;28;20031;-79
2021/08/12 05:24:49;;;;;;;19.75;10.85;;;13.40;99.90;;;;;;5054458;28;20492;-79
2021/08/12 05:27:15;;;;;;;19.70;12.38;;;13.60;99.90;;;;;;4973362;28;20545;-79
2021/08/12 05:29:40;;;;;;;15.63;10.50;;;13.70;99.90;;;;;;4973312;28;20035;-79
2021/08/12 05:32:07;;;;;;;14.68;11.15;;;13.80;99.90;;;;;;4973144;28;20027;-79
2021/08/12 05:34:32;;;;;;;16.75;11.05;;;14.00;99.90;;;;;;4989369;28;20122;-79
2021/08/12 05:36:59;;;;;;;23.02;11.45;;;14.10;99.90;;;;;;4973116;28;20118;-79
2021/08/12 05:39:25;;;;;;;17.45;10.68;;;14.30;99.90;;;;;;4973810;28;20040;-79
2021/08/12 05:41:51;;;;;;;18.80;10.55;;;14.40;99.90;;;;;;4987992;28;20030;-79
2021/08/12 05:44:17;;;;;;;20.95;10.55;;;14.60;99.90;;;;;;4954825;28;20019;-79
2021/08/12 05:46:44;;;;;;;18.20;10.30;;;14.60;99.90;;;;;;4954961;28;20036;-79
2021/08/12 05:49:10;;;;;;;23.77;10.98;;;14.70;99.90;;;;;;4969709;28;20489;-79
2021/08/12 05:51:37;;;;;;;19.33;10.25;;;14.80;99.90;;;;;;4954562;28;20032;-79
2021/08/12 05:54:03;;;;;;;13.23;9.43;;;14.80;99.90;;;;;;4969572;28;20067;-79
2021/08/12 05:56:29;;;;;;;21.70;10.82;;;14.90;99.90;;;;;;4955045;28;20469;-79
2021/08/12 05:58:55;;;;;;;17.38;10.05;;;15.00;99.90;;;;;;4954795;28;20027;-79
2021/08/12 06:01:20;;;;;;;19.30;9.63;;;15.10;99.90;;;;;;4969449;28;20026;-79
2021/08/12 06:03:46;;;;;;;16.33;9.57;;;15.30;99.90;;;;;;4954648;28;20027;-79
2021/08/12 06:06:12;;;;;;;15.90;9.05;;;15.50;99.90;;;;;;4969389;28;20027;-79
2021/08/12 06:08:37;;;;;;;18.30;9.00;;;15.70;99.90;;;;;;4954468;28;20375;-79
2021/08/12 06:11:03;;;;;;;17.13;10.20;;;15.90;99.90;;;;;;4959233;28;20069;-79
2021/08/12 06:13:29;;;;;;;18.00;10.68;;;16.10;99.90;;;;;;4974389;28;20481;-78
2021/08/12 06:15:54;;;;;;;17.60;8.82;;;16.30;99.90;;;;;;4953318;28;20031;-77
2021/08/12 06:18:22;;;;;;;13.77;9.10;;;16.40;99.90;;;;;;4954419;28;20031;-77
2021/08/12 06:20:47;;;;;;;15.05;9.82;;;16.40;99.90;;;;;;4954359;28;20077;-79
2021/08/12 06:23:13;;;;;;;15.02;8.85;;;16.60;99.90;;;;;;4954343;28;20027;-79
2021/08/12 06:25:40;;;;;;;14.45;8.35;;;16.80;99.90;;;;;;4969205;28;20026;-79
2021/08/12 06:28:07;;;;;;;15.43;8.93;;;16.90;99.90;;;;;;4969434;28;20132;-79
2021/08/12 06:30:33;;;;;;;11.65;7.95;;;17.00;99.90;;;;;;4973495;28;20039;-79
2021/08/12 06:32:59;;;;;;;11.52;7.85;;;17.20;99.90;;;;;;4973259;28;20490;-79
2021/08/12 06:35:26;;;;;;;13.38;8.95;;;17.40;99.90;;;;;;4972176;28;20015;-79
2021/08/12 06:37:52;;;;;;;11.27;8.60;;;17.50;99.90;;;;;;4987469;28;20034;-79
2021/08/12 06:40:20;;;;;;;12.70;7.97;;;17.60;99.90;;;;;;4973770;28;20481;-79
2021/08/12 06:42:46;;;;;;;14.07;8.18;;;17.80;99.90;;;;;;4971999;28;20035;-79
2021/08/12 06:45:15;;;;;;;11.93;7.25;;;18.00;99.90;;;;;;4972107;28;20113;-79
2021/08/12 06:47:41;;;;;;;12.63;7.35;;;18.20;99.90;;;;;;4972064;28;20031;-79
2021/08/12 06:50:08;;;;;;;10.15;7.78;;;18.30;99.90;;;;;;4971643;28;20039;-79
2021/08/12 06:52:34;;;;;;;9.73;7.68;;;18.50;99.90;;;;;;4988099;28;20069;-79
2021/08/12 06:55:01;;;;;;;11.48;7.65;;;18.60;99.90;;;;;;4972016;28;20023;-80
2021/08/12 06:57:27;;;;;;;12.43;7.93;;;18.70;99.90;;;;;;4966277;28;20080;-79
2021/08/12 06:59:53;;;;;;;11.43;6.95;;;18.90;99.90;;;;;;4972103;28;20019;-79
2021/08/12 07:02:19;;;;;;;7.68;6.47;;;19.10;99.90;;;;;;4971192;28;20031;-79
2021/08/12 07:04:45;;;;;;;10.27;6.97;;;19.30;99.90;;;;;;4972282;28;20076;-79
2021/08/12 07:07:10;;;;;;;8.25;6.30;;;19.50;99.90;;;;;;4970964;28;20031;-79
2021/08/12 07:09:37;;;;;;;8.07;5.60;;;19.70;99.90;;;;;;4972962;28;20475;-79
2021/08/12 07:12:03;;;;;;;8.98;6.15;;;19.80;95.70;;;;;;4987413;28;20118;-79
2021/08/12 07:14:28;;;;;;;8.40;6.30;;;19.90;93.80;;;;;;4972888;28;20073;-79
2021/08/12 07:16:54;;;;;;;9.98;6.13;;;20.00;89.70;;;;;;4972891;28;20027;-79
2021/08/12 07:19:20;;;;;;;7.88;5.75;;;20.20;90.80;;;;;;4987645;28;20607;-79
2021/08/12 07:21:46;;;;;;;8.10;5.93;;;20.30;91.60;;;;;;4972810;28;20114;-79
2021/08/12 07:24:11;;;;;;;6.20;5.47;;;20.40;91.30;;;;;;4972812;28;20027;-80
2021/08/12 07:26:37;;;;;;;7.65;5.75;;;20.50;90.50;;;;;;4970402;28;20031;-79
2021/08/12 07:29:03;;;;;;;7.07;4.53;;;20.60;88.90;;;;;;4953215;28;20039;-79
2021/08/12 07:31:30;;;;;;;8.15;5.40;;;20.70;83.90;;;;;;4968237;28;20416;-80
2021/08/12 07:33:55;;;;;;;8.43;5.03;;;20.80;80.30;;;;;;4968082;28;20093;-79
2021/08/12 07:36:21;;;;;;;6.60;5.30;;;20.90;79.40;;;;;;4952144;28;20027;-79
2021/08/12 07:38:47;;;;;;;5.93;4.63;;;20.90;76.80;;;;;;4968014;28;20044;-79
2021/08/12 07:41:13;;;;;;;6.88;4.90;;;20.80;77.10;;;;;;4951930;28;20126;-80
2021/08/12 07:43:40;;;;;;;7.68;5.15;;;21.00;80.50;;;;;;4968948;28;20035;-79
2021/08/12 07:46:05;;;;;;;6.70;4.50;;;20.90;79.00;;;;;;4969034;28;20020;-79
2021/08/12 07:48:31;;;;;;;5.10;4.60;;;21.20;80.10;;;;;;4967589;28;20027;-79
2021/08/12 07:50:57;;;;;;;6.00;4.68;;;21.30;78.40;;;;;;4968010;28;20023;-79
2021/08/12 07:53:23;;;;;;;5.13;4.13;;;21.30;76.40;;;;;;4952534;28;20035;-79
2021/08/12 07:55:48;;;;;;;9.68;5.30;;;21.50;77.50;;;;;;4953082;28;20023;-79
2021/08/12 07:58:14;;;;;;;5.88;4.47;;;21.40;74.80;;;;;;4981824;28;20031;-79
2021/08/12 08:00:40;;;;;;;5.53;4.05;;;21.10;74.10;;;;;;4971068;28;20164;-79
2021/08/12 08:03:05;;;;;;;6.32;4.00;;;21.30;76.50;;;;;;4970873;28;20022;-80
2021/08/12 08:05:31;;;;;;;4.93;4.40;;;21.40;79.70;;;;;;4971457;28;20031;-79
2021/08/12 08:07:57;;;;;;;4.55;3.35;;;21.20;75.70;;;;;;4972131;28;20106;-79
2021/08/12 08:10:26;;;;;;;5.57;4.10;;;20.90;68.10;;;;;;4970825;28;20077;-79
2021/08/12 08:12:53;;;;;;;5.32;4.07;;;21.20;69.40;;;;;;4970783;28;20050;-79
2021/08/12 08:15:20;;;;;;;3.45;3.15;;;21.30;70.50;;;;;;4970026;28;20031;-79
2021/08/12 08:17:46;;;;;;;4.32;3.25;;;21.30;63.50;;;;;;4986954;28;20035;-79
2021/08/12 08:20:12;;;;;;;4.05;3.65;;;21.40;63.00;;;;;;4971901;28;20111;-79
2021/08/12 08:22:39;;;;;;;3.55;3.25;;;21.40;62.80;;;;;;4971825;28;20040;-79
2021/08/12 08:25:06;;;;;;;3.40;3.13;;;21.80;66.20;;;;;;4971935;28;20101;-79
2021/08/12 08:27:32;;;;;;;3.00;2.70;;;22.00;62.20;;;;;;4971755;28;20019;-79
2021/08/12 08:29:58;;;;;;;4.10;3.80;;;22.30;63.10;;;;;;4971388;28;20104;-79
2021/08/12 08:32:24;;;;;;;4.10;3.28;;;22.10;57.90;;;;;;4971592;28;20027;-79
2021/08/12 08:34:49;;;;;;;3.92;3.38;;;21.60;58.30;;;;;;4971791;28;20031;-79
2021/08/12 08:37:15;;;;;;;3.95;3.63;;;21.70;62.70;;;;;;4970415;28;20015;-79
2021/08/12 08:39:41;;;;;;;4.15;3.78;;;21.60;61.40;;;;;;4970293;28;20042;-79
2021/08/12 08:42:08;;;;;;;3.15;2.92;;;21.50;61.00;;;;;;4970347;28;20076;-79
2021/08/12 08:44:34;;;;;;;3.75;3.40;;;21.60;63.50;;;;;;4971276;28;20081;-79
2021/08/12 08:47:00;;;;;;;3.20;2.92;;;21.40;62.70;;;;;;4955117;28;20038;-79
2021/08/12 08:49:29;;;;;;;6.05;2.97;;;21.20;60.80;;;;;;4950890;28;20069;-79
2021/08/12 08:51:59;;;;;;;3.45;3.15;;;21.30;61.70;;;;;;4952248;28;20016;-79
2021/08/12 08:54:25;;;;;;;4.72;3.80;;;21.60;61.20;;;;;;4967010;28;20031;-79
2021/08/12 08:56:52;;;;;;;3.13;2.63;;;21.90;57.90;;;;;;4966990;28;20030;-79
2021/08/12 08:59:19;;;;;;;5.07;3.55;;;22.20;58.10;;;;;;4952078;28;20034;-80
2021/08/12 09:01:45;;;;;;;3.67;2.90;;;22.40;55.20;;;;;;4966146;28;20502;-79
2021/08/12 09:04:13;;;;;;;5.00;3.10;;;22.70;57.20;;;;;;4963018;28;20111;-79
2021/08/12 09:06:39;;;;;;;4.05;2.95;;;22.70;57.90;;;;;;4971337;28;20027;-79
2021/08/12 09:09:04;;;;;;;2.95;2.70;;;22.60;55.50;;;;;;4969615;28;20409;-79
2021/08/12 09:11:30;;;;;;;5.97;4.03;;;22.50;57.00;;;;;;4970842;28;20427;-79
2021/08/12 09:13:56;;;;;;;3.47;2.58;;;22.60;56.00;;;;;;4986187;28;20037;-79
2021/08/12 09:16:34;;;;;;;3.92;3.13;;;22.30;56.70;;;;;;4961412;28;20058;-79
2021/08/12 09:19:12;;;;;;;3.78;3.28;;;22.00;58.60;;;;;;4971348;28;20433;-78
2021/08/12 09:21:38;;;;;;;3.22;2.95;;;21.60;58.90;;;;;;4986115;28;20088;-79
2021/08/12 09:24:03;;;;;;;3.28;2.97;;;21.40;61.00;;;;;;4969736;28;20019;-79
2021/08/12 09:26:37;;;;;;;10.30;3.63;;;21.40;63.10;;;;;;4971055;28;20477;-79
2021/08/12 09:29:03;;;;;;;4.80;3.15;;;21.50;64.20;;;;;;4969758;28;20041;-79
2021/08/12 09:31:29;;;;;;;3.72;3.42;;;21.70;62.20;;;;;;4985951;28;20019;-79
2021/08/12 09:33:57;;;;;;;4.18;3.55;;;21.90;61.00;;;;;;4970713;28;20042;-79
2021/08/12 09:36:23;;;;;;;5.15;3.20;;;21.80;59.60;;;;;;4969648;28;20031;-79
2021/08/12 09:39:07;;;;;;;3.50;3.00;;;22.10;59.00;;;;;;4970900;28;20046;-79
2021/08/12 09:41:53;;;;;;;5.25;3.85;;;22.20;58.10;;;;;;4985872;28;20027;-79
2021/08/12 09:44:34;;;;;;;4.55;3.40;;;22.30;58.10;;;;;;4985790;28;20077;-79
2021/08/12 09:47:09;;;;;;;4.22;3.25;;;22.40;56.50;;;;;;4969420;28;20069;-79
2021/08/12 09:49:40;;;;;;;5.07;3.65;;;22.60;56.80;;;;;;4969533;28;20092;-79
2021/08/12 09:52:42;;;;;;;5.38;3.50;;;22.90;56.90;;;;;;4970511;28;20026;-79
2021/08/12 09:55:20;;;;;;;4.60;3.20;;;23.10;55.90;;;;;;4985637;28;20023;-79
2021/08/12 09:57:48;;;;;;;3.17;2.78;;;23.30;54.30;;;;;;4970757;28;20050;-79
2021/08/12 10:00:30;;;;;;;3.33;2.90;;;23.40;51.10;;;;;;4970641;28;20081;-79
2021/08/12 10:02:56;;;;;;;3.10;2.80;;;23.50;51.90;;;;;;4984011;28;20049;-79
2021/08/12 10:05:21;;;;;;;4.97;3.47;;;23.60;51.10;;;;;;4969295;28;20481;-79
2021/08/12 10:07:49;;;;;;;2.90;2.60;;;23.50;51.70;;;;;;4970616;28;20030;-79
2021/08/12 10:10:27;;;;;;;3.50;2.63;;;23.40;52.00;;;;;;4969266;28;20035;-79
2021/08/12 10:12:59;;;;;;;3.45;2.97;;;23.50;51.30;;;;;;4973085;28;20027;-79
2021/08/12 10:15:30;;;;;;;3.50;3.20;;;23.40;51.10;;;;;;4971461;28;20105;-79
2021/08/12 10:17:58;;;;;;;3.42;2.50;;;23.40;53.70;;;;;;4954469;28;20102;-79
2021/08/12 10:20:35;;;;;;;3.33;3.03;;;23.40;56.10;;;;;;4954421;28;20461;-79
2021/08/12 10:23:03;;;;;;;3.95;2.50;;;23.10;56.40;;;;;;4954450;28;20507;-78
2021/08/12 10:25:29;;;;;;;2.55;2.35;;;23.00;54.30;;;;;;4953167;28;20393;-79
2021/08/12 10:28:00;;;;;;;2.63;2.15;;;23.10;53.30;;;;;;4954439;28;20019;-78
2021/08/12 10:30:27;;;;;;;2.83;2.42;;;23.30;52.00;;;;;;4954279;28;20092;-79
2021/08/12 10:32:58;;;;;;;3.60;3.03;;;23.50;51.20;;;;;;4953625;28;20042;-78
2021/08/12 10:35:26;;;;;;;2.38;2.15;;;23.70;51.40;;;;;;4954168;28;20035;-79
2021/08/12 10:37:54;;;;;;;2.65;2.45;;;23.70;49.10;;;;;;4954287;28;20027;-79
2021/08/12 10:40:25;;;;;;;3.00;2.78;;;24.00;51.30;;;;;;4954642;28;20027;-78
2021/08/12 10:42:52;;;;;;;2.78;2.50;;;24.30;51.00;;;;;;4952994;28;20027;-79
2021/08/12 10:45:20;;;;;;;5.18;2.75;;;24.40;50.30;;;;;;4954074;28;20477;-78
2021/08/12 10:47:56;;;;;;;2.83;2.50;;;24.20;48.50;;;;;;4973287;28;20034;-78
2021/08/12 10:50:21;;;;;;;2.20;2.00;;;24.20;48.70;;;;;;4971509;28;20042;-78
2021/08/12 10:53:11;;;;;;;1.65;1.50;;;24.30;48.60;;;;;;4987952;28;20027;-78
2021/08/12 10:55:40;;;;;;;3.20;2.30;;;23.90;47.00;;;;;;4973171;28;20511;-79
2021/08/12 10:58:18;;;;;;;2.67;1.95;;;23.60;46.80;;;;;;4988080;28;20035;-79
2021/08/12 11:00:54;;;;;;;2.53;2.33;;;23.30;47.40;;;;;;4988121;28;20126;-79
2021/08/12 11:03:43;;;;;;;2.65;2.40;;;23.40;47.50;;;;;;4971224;28;20026;-78
2021/08/12 11:06:20;;;;;;;2.60;2.03;;;23.70;48.80;;;;;;4973134;28;20149;-78
2021/08/12 11:08:48;;;;;;;3.22;2.35;;;24.10;49.00;;;;;;4972926;28;20027;-79
2021/08/12 11:11:22;;;;;;;2.63;2.42;;;24.20;47.50;;;;;;4973000;28;20023;-79
2021/08/12 11:13:50;;;;;;;2.75;1.95;;;24.40;46.70;;;;;;4987966;28;20027;-78
2021/08/12 11:16:17;;;;;;;2.10;1.90;;;24.60;47.20;;;;;;4968063;28;20031;-79
2021/08/12 11:18:53;;;;;;;3.25;2.50;;;24.70;46.70;;;;;;4953616;28;20067;-79
2021/08/12 11:21:31;;;;;;;2.33;2.15;;;24.50;45.70;;;;;;4968231;28;20494;-79
2021/08/12 11:24:30;;;;;;;2.22;1.90;;;24.10;44.10;;;;;;4967313;28;20080;-78
2021/08/12 11:26:57;;;;;;;3.85;2.30;;;23.60;44.50;;;;;;4952213;29;20043;-78
2021/08/12 11:29:23;;;;;;;2.65;2.03;;;23.50;47.10;;;;;;4952074;29;20047;-79
2021/08/12 11:31:49;;;;;;;3.25;2.00;;;23.70;49.20;;;;;;4952169;29;20088;-78
2021/08/12 11:34:36;;;;;;;2.50;2.00;;;24.00;48.50;;;;;;4952064;29;20533;-79
2021/08/12 11:37:05;;;;;;;3.45;2.58;;;24.20;46.50;;;;;;4946491;28;20438;-78
2021/08/12 11:39:31;;;;;;;2.50;2.30;;;24.40;44.70;;;;;;4953134;28;20031;-79
2021/08/12 11:41:57;;;;;;;2.80;2.60;;;24.60;45.00;;;;;;4987455;28;20076;-78
2021/08/12 11:44:23;;;;;;;1.90;1.80;;;24.70;44.90;;;;;;4971223;28;20114;-78
2021/08/12 11:46:49;;;;;;;2.08;1.88;;;25.00;45.50;;;;;;4978515;28;20400;-79
2021/08/12 11:49:17;;;;;;;3.35;2.03;;;25.10;45.40;;;;;;4953116;28;20043;-78
2021/08/12 11:51:44;;;;;;;2.00;1.90;;;25.20;43.70;;;;;;4968928;28;20081;-79
2021/08/12 11:54:11;;;;;;;2.95;1.92;;;25.00;42.60;;;;;;4953062;28;20035;-79
2021/08/12 11:56:38;;;;;;;2.78;2.10;;;25.00;43.20;;;;;;4967831;28;20027;-79
2021/08/12 11:59:05;;;;;;;4.13;2.28;;;25.00;44.70;;;;;;4952925;28;20031;-79
2021/08/12 12:01:34;;;;;;;5.40;2.42;;;25.20;45.30;;;;;;4952988;28;20023;-79
2021/08/12 12:04:03;;;;;;;3.58;2.20;;;25.20;43.30;;;;;;4967972;28;20029;-79
2021/08/12 12:06:32;;;;;;;3.53;2.30;;;25.20;43.70;;;;;;4967378;28;20571;-79
2021/08/12 12:09:17;;;;;;;3.17;2.30;;;24.90;43.50;;;;;;4952641;28;20028;-79
2021/08/12 12:11:55;;;;;;;3.92;2.25;;;24.90;43.40;;;;;;4951530;28;20035;-79
2021/08/12 12:14:26;;;;;;;2.13;1.92;;;24.70;42.90;;;;;;4967541;28;20023;-79
2021/08/12 12:17:11;;;;;;;2.42;2.22;;;24.50;43.50;;;;;;4961168;28;20019;-79
2021/08/12 12:19:58;;;;;;;2.72;2.25;;;24.50;43.70;;;;;;4970351;28;20077;-79
2021/08/12 12:22:24;;;;;;;3.17;2.50;;;24.60;44.70;;;;;;4970008;28;20035;-79
2021/08/12 12:24:49;;;;;;;3.15;2.05;;;24.50;44.40;;;;;;4959069;28;20081;-79
2021/08/12 12:27:20;;;;;;;3.47;2.63;;;24.80;45.10;;;;;;4951627;28;20039;-79
2021/08/12 12:29:47;;;;;;;3.80;1.90;;;25.10;45.80;;;;;;4966594;28;20039;-79
2021/08/12 12:32:19;;;;;;;5.65;2.38;;;25.20;43.30;;;;;;4950482;28;20031;-79
2021/08/12 12:35:05;;;;;;;3.13;2.75;;;25.30;42.60;;;;;;4964902;28;20062;-79
2021/08/12 12:37:33;;;;;;;3.28;2.47;;;25.50;42.50;;;;;;4950789;28;20093;-79
2021/08/12 12:39:59;;;;;;;2.75;2.20;;;25.30;41.30;;;;;;4965513;28;20049;-79
2021/08/12 12:42:25;;;;;;;3.13;2.50;;;25.10;41.70;;;;;;4950694;28;20099;-79
2021/08/12 12:44:59;;;;;;;3.05;2.75;;;24.80;42.40;;;;;;4965371;28;20130;-80
2021/08/12 12:47:27;;;;;;;4.30;2.70;;;24.50;42.00;;;;;;4952111;28;20043;-79